Terminal Aerodrome Forecast
Issued by NWS Charleston, WV

Current Version | Previous Version | Graphics & Text | Print | Product List | Glossary On
Versions: 1 2 3 4 5 6 7 8 9 10 11 12 13 14 15 16 17 18 19 20 21 22 23 24
000
FTUS41 KRLX 040900 AAA
TAFEKN
TAF AMD
KEKN 040914Z 0409/0506 28009KT 3SM -RA BR OVC018
     FM041200 30006KT 6SM -RA OVC020
     FM041700 23005KT 2SM +RA OVC015
     FM050400 33007KT 2SM +RASNPL OVC010=

USA.gov is the U.S. government's official web portal to all federal, state and local government web resources and services.